Aeroporto :
LOGIN :

Iscrizione | Disclaimer

   EN    FR    IT 

 










Sommario :    VFR   VFR Marginale   IFR   IFR Intensivo   IFR Molto Intensivo
Visibilità : 
Base nubi : 
>= 8 km
>= 3000ft
5 / 8 km
1000 / 3000 ft
1500m / 5 km
500 / 1000 ft
800 / 1500m
200 / 500 ft
< 800m
< 200 ft
Simboli :   Temporali  Nebbia  Neve Forte  Precipitazioni Forti  Vento > 20 kt
SIGMETs :   Varie  Temporali  Ghiacco  Turbolenza  Onda orograficha  Ceneri Vulcaniche






- Altitudine del aeroporto : 348 ft
- Codice IATA : TSR


LRTR - Timisoara

ULTIMO METAR :
  • 261430Z 22002KT CAVOK 12/04 Q1021

METARs OBSOLETI :
  • 261400Z 21003KT 170V240 CAVOK 12/04 Q1021
  • 261330Z 19003KT 150V220 CAVOK 12/03 Q1021
  • 261300Z 19005KT CAVOK 12/03 Q1021
  • 261230Z 18005KT 150V220 CAVOK 12/03 Q1021
  • 261200Z 20005KT CAVOK 12/03 Q1021

TAF TAF LRTR
Valido dal 26 a 12 ore il 27 a 12 ore UTC


261100Z 2612/2712 10006KT CAVOK
PROB40
TEMPO 2703/2707 5000 -RA BR
TEMPO 2707/2712 3000 RA BKN010 OVC030



MetMap, La meteo Aeronautica in un colpo d'occhio ! - Copyright ORBIFLY Dicembre 2007 - Disclaimer

ORBIFLY MET'MAP TEAM :

Programmazione e sviluppo : Alexandra Zaïnal
Concezione : Baudouin d'Aumeries
Aiuto per la programmazione : Marc-Olivier Méhu
Supporto tecnico e logistico : Manuel Goepfert
Aiuto per la traduzione : Arnaldo La Scala

Contatto : metmap@orbifly.com




FONTI E CREDITI :

   NOAA